createdAt,value
2022-09-02T00:07:22.302Z,9.51
2022-09-02T00:16:59.257Z,9.42
2022-09-02T00:26:36.153Z,9.33
2022-09-02T00:36:13.419Z,9.14
2022-09-02T00:45:50.131Z,9.02
2022-09-02T00:55:26.710Z,8.94
2022-09-02T01:05:04.569Z,8.85
2022-09-02T01:14:39.549Z,8.86
2022-09-02T01:24:16.447Z,8.66
2022-09-02T01:33:53.517Z,8.59
2022-09-02T01:43:30.044Z,8.4
2022-09-02T01:53:06.876Z,8.43
2022-09-02T02:02:44.008Z,8.34
2022-09-02T02:12:20.982Z,8.2
2022-09-02T02:21:57.736Z,8.08
2022-09-02T02:31:34.725Z,7.9
2022-09-02T02:41:11.658Z,7.83
2022-09-02T02:50:48.555Z,7.86
2022-09-02T03:00:25.518Z,7.76
2022-09-02T03:10:02.560Z,7.56
2022-09-02T03:19:39.292Z,7.45
2022-09-02T03:29:16.570Z,7.52
2022-09-02T03:38:53.494Z,7.42
2022-09-02T03:48:30.659Z,7.39
2022-09-02T03:58:08.621Z,7.31
2022-09-02T04:07:47.069Z,7.11
2022-09-02T04:17:21.847Z,7.1
2022-09-02T04:27:03.428Z,7.21
2022-09-02T04:36:35.809Z,7.11
2022-09-02T04:46:12.687Z,7.15
2022-09-02T04:55:49.578Z,7.13
2022-09-02T05:05:26.799Z,7.35
2022-09-02T05:15:04.094Z,7.46
2022-09-02T05:24:41.620Z,7.78
2022-09-02T05:34:18.988Z,8.18
2022-09-02T05:43:56.852Z,8.61
2022-09-02T05:53:34.180Z,8.87
2022-09-02T06:03:12.338Z,9.24
2022-09-02T06:12:49.420Z,9.68
2022-09-02T06:22:26.673Z,10.01
2022-09-02T06:32:04.290Z,10.48
2022-09-02T06:41:41.936Z,10.78
2022-09-02T06:51:19.340Z,11.17
2022-09-02T07:00:57.578Z,11.66
2022-09-02T07:10:35.257Z,11.94
2022-09-02T07:20:13.227Z,12.5
2022-09-02T07:29:50.693Z,12.94
2022-09-02T07:39:28.689Z,13.4
2022-09-02T07:49:06.563Z,13.78
2022-09-02T07:58:44.667Z,14.27
2022-09-02T08:08:22.569Z,14.91
2022-09-02T08:18:00.963Z,15.42
2022-09-02T08:27:38.850Z,15.88
2022-09-02T08:37:16.742Z,16.32
2022-09-02T08:46:55.260Z,17.07
2022-09-02T08:56:33.882Z,17.6
2022-09-02T09:06:12.837Z,18.12
2022-09-02T09:15:51.670Z,18.71
2022-09-02T09:25:30.343Z,18.86
2022-09-02T09:35:08.333Z,18.55
2022-09-02T09:44:47.133Z,18.6
2022-09-02T09:54:25.297Z,19.23
2022-09-02T10:04:43.544Z,20.66
2022-09-02T10:13:52.821Z,21.54
2022-09-02T10:23:48.006Z,23.54
2022-09-02T10:33:38.748Z,23.78
2022-09-02T10:43:26.643Z,25.55
2022-09-02T10:53:01.947Z,24.45
2022-09-02T11:02:29.140Z,25.77
2022-09-02T11:12:20.294Z,28.38
2022-09-02T11:21:50.211Z,25.39
2022-09-02T11:31:10.487Z,23.64
2022-09-02T11:41:32.002Z,23.32
2022-09-02T11:50:18.990Z,22.99
2022-09-02T11:59:54.504Z,22.85
2022-09-02T12:09:42.113Z,24.44
2022-09-02T12:19:46.033Z,25.97
2022-09-02T12:29:25.841Z,27.06
2022-09-02T12:38:47.201Z,25.59
2022-09-02T12:48:17.509Z,25.05
2022-09-02T12:57:52.282Z,23.8
2022-09-02T13:07:30.007Z,24.3
2022-09-02T13:17:25.677Z,24.09
2022-09-02T13:26:49.538Z,23.63
2022-09-02T13:36:23.381Z,24.18
2022-09-02T13:46:01.540Z,23.98
2022-09-02T13:55:45.068Z,24.8
2022-09-02T14:05:23.558Z,24.71
2022-09-02T14:14:58.162Z,24.43
2022-09-02T14:24:33.663Z,23.46
2022-09-02T14:34:10.052Z,23.13
2022-09-02T14:44:10.164Z,24.08
2022-09-02T14:53:42.887Z,23.76
2022-09-02T15:03:15.666Z,23.07
2022-09-02T15:12:50.995Z,22.59
2022-09-02T15:22:25.896Z,22.33
2022-09-02T15:32:02.508Z,22.19
2022-09-02T15:41:39.531Z,21.81
2022-09-02T15:51:17.316Z,21.67
2022-09-02T16:00:54.672Z,21.84
2022-09-02T16:10:30.651Z,21.49
2022-09-02T16:20:07.656Z,21.61
2022-09-02T16:29:45.361Z,21.55
2022-09-02T16:39:22.066Z,21.39
2022-09-02T16:48:58.047Z,20.7
2022-09-02T16:58:34.468Z,20.16
2022-09-02T17:08:10.539Z,19.65
2022-09-02T17:17:47.570Z,19.26
2022-09-02T17:27:23.923Z,19.01
2022-09-02T17:37:00.617Z,18.83
2022-09-02T17:46:37.447Z,18.61
2022-09-02T17:56:13.845Z,18.44
2022-09-02T18:05:50.331Z,18.4
2022-09-02T18:15:27.130Z,18.11
2022-09-02T18:25:03.869Z,17.9
2022-09-02T18:34:40.858Z,17.73
2022-09-02T18:44:17.912Z,17.58
2022-09-02T18:53:55.187Z,17.66
2022-09-02T19:03:32.258Z,17.61
2022-09-02T19:13:09.408Z,17.53
2022-09-02T19:22:46.490Z,17.52
2022-09-02T19:32:23.590Z,17.33
2022-09-02T19:42:00.738Z,17.36
2022-09-02T19:51:37.920Z,17.18
2022-09-02T20:01:15.076Z,17.07
2022-09-02T20:10:52.282Z,17.04
2022-09-02T20:20:29.556Z,16.87
2022-09-02T20:30:06.342Z,16.76
2022-09-02T20:39:43.760Z,16.7
2022-09-02T20:49:20.877Z,16.66
2022-09-02T20:58:58.262Z,16.65
2022-09-02T21:08:35.670Z,16.4
2022-09-02T21:18:13.072Z,16.24
2022-09-02T21:27:50.361Z,16.03
2022-09-02T21:37:27.483Z,15.83
2022-09-02T21:47:04.542Z,15.77
2022-09-02T21:56:41.851Z,15.73
2022-09-02T22:06:18.724Z,15.38
2022-09-02T22:15:55.634Z,15
2022-09-02T22:25:32.654Z,14.59
2022-09-02T22:35:09.185Z,14.39
2022-09-02T22:44:45.902Z,13.96
2022-09-02T22:54:22.647Z,13.53
2022-09-02T23:03:59.256Z,13.13
2022-09-02T23:13:35.840Z,12.84
2022-09-02T23:23:12.488Z,12.61
2022-09-02T23:32:49.259Z,12.43
2022-09-02T23:42:26.005Z,12.25
2022-09-02T23:52:02.863Z,12.22
